sensor_id;sensor_type;location;lat;lon;timestamp;pressure;altitude;pressure_sealevel;temperature;humidity
72359;BME280;60317;48.880;-0.862;2023-07-28T00:00:35;99638.63;;;20.33;69.97
72359;BME280;60317;48.880;-0.862;2023-07-28T00:03:02;99639.59;;;20.32;70.06
72359;BME280;60317;48.880;-0.862;2023-07-28T00:05:28;99628.03;;;20.31;70.03
72359;BME280;60317;48.880;-0.862;2023-07-28T00:07:55;99639.59;;;20.32;70.12
72359;BME280;60317;48.880;-0.862;2023-07-28T00:10:23;99644.97;;;20.32;69.94
72359;BME280;60317;48.880;-0.862;2023-07-28T00:12:49;99639.59;;;20.32;70.11
72359;BME280;60317;48.880;-0.862;2023-07-28T00:15:16;99638.63;;;20.33;70.14
72359;BME280;60317;48.880;-0.862;2023-07-28T00:17:42;99635.94;;;20.33;70.19
72359;BME280;60317;48.880;-0.862;2023-07-28T00:20:09;99642.97;;;20.34;70.19
72359;BME280;60317;48.880;-0.862;2023-07-28T00:22:36;99635.94;;;20.33;70.38
72359;BME280;60317;48.880;-0.862;2023-07-28T00:25:03;99640.44;;;20.32;70.41
72359;BME280;60317;48.880;-0.862;2023-07-28T00:27:31;99637.75;;;20.32;70.67
72359;BME280;60317;48.880;-0.862;2023-07-28T00:29:58;99646.81;;;20.31;70.64
72359;BME280;60317;48.880;-0.862;2023-07-28T00:32:24;99650.31;;;20.32;70.89
72359;BME280;60317;48.880;-0.862;2023-07-28T00:34:51;99649.50;;;20.31;70.62
72359;BME280;60317;48.880;-0.862;2023-07-28T00:37:17;99643.28;;;20.31;70.66
72359;BME280;60317;48.880;-0.862;2023-07-28T00:39:44;99649.50;;;20.31;70.66
72359;BME280;60317;48.880;-0.862;2023-07-28T00:42:10;99654.84;;;20.31;70.86
72359;BME280;60317;48.880;-0.862;2023-07-28T00:44:38;99663.06;;;20.30;71.22
72359;BME280;60317;48.880;-0.862;2023-07-28T00:47:05;99657.84;;;20.28;70.95
72359;BME280;60317;48.880;-0.862;2023-07-28T00:49:31;99658.69;;;20.29;70.95
72359;BME280;60317;48.880;-0.862;2023-07-28T00:51:58;99655.16;;;20.28;70.98
72359;BME280;60317;48.880;-0.862;2023-07-28T00:54:24;99659.56;;;20.29;70.81
72359;BME280;60317;48.880;-0.862;2023-07-28T00:56:51;99665.88;;;20.28;70.92
72359;BME280;60317;48.880;-0.862;2023-07-28T00:59:18;99660.38;;;20.30;71.05
72359;BME280;60317;48.880;-0.862;2023-07-28T01:01:46;99661.53;;;20.27;70.97
72359;BME280;60317;48.880;-0.862;2023-07-28T01:04:12;99658.84;;;20.27;70.93
72359;BME280;60317;48.880;-0.862;2023-07-28T01:06:46;99660.69;;;20.26;70.98
72359;BME280;60317;48.880;-0.862;2023-07-28T01:09:16;99647.28;;;20.26;70.97
72359;BME280;60317;48.880;-0.862;2023-07-28T01:11:58;99654.47;;;20.26;71.00
72359;BME280;60317;48.880;-0.862;2023-07-28T01:14:25;99648.94;;;20.27;70.89
72359;BME280;60317;48.880;-0.862;2023-07-28T01:16:53;99648.09;;;20.27;70.82
72359;BME280;60317;48.880;-0.862;2023-07-28T01:19:21;99641.91;;;20.26;70.97
72359;BME280;60317;48.880;-0.862;2023-07-28T01:21:53;99647.28;;;20.26;70.75
72359;BME280;60317;48.880;-0.862;2023-07-28T01:24:24;99648.09;;;20.27;71.03
72359;BME280;60317;48.880;-0.862;2023-07-28T01:26:56;99656.16;;;20.27;70.83
72359;BME280;60317;48.880;-0.862;2023-07-28T01:29:23;99659.69;;;20.27;70.87
72359;BME280;60317;48.880;-0.862;2023-07-28T01:31:51;99660.53;;;20.28;70.66
72359;BME280;60317;48.880;-0.862;2023-07-28T01:34:17;99658.00;;;20.26;70.70
72359;BME280;60317;48.880;-0.862;2023-07-28T01:36:44;99658.84;;;20.27;70.72
72359;BME280;60317;48.880;-0.862;2023-07-28T01:39:10;99667.91;;;20.26;70.77
72359;BME280;60317;48.880;-0.862;2023-07-28T01:41:37;99657.16;;;20.26;70.74
72359;BME280;60317;48.880;-0.862;2023-07-28T01:44:05;99661.53;;;20.27;70.78
72359;BME280;60317;48.880;-0.862;2023-07-28T01:46:31;99658.00;;;20.26;70.67
72359;BME280;60317;48.880;-0.862;2023-07-28T01:48:58;99653.47;;;20.27;70.52
72359;BME280;60317;48.880;-0.862;2023-07-28T01:51:25;99659.69;;;20.27;70.72
72359;BME280;60317;48.880;-0.862;2023-07-28T01:53:51;99647.28;;;20.26;70.44
72359;BME280;60317;48.880;-0.862;2023-07-28T01:56:18;99652.63;;;20.26;70.34
72359;BME280;60317;48.880;-0.862;2023-07-28T01:58:44;99650.78;;;20.27;70.46
72359;BME280;60317;48.880;-0.862;2023-07-28T02:01:13;99653.47;;;20.27;70.20
72359;BME280;60317;48.880;-0.862;2023-07-28T02:03:40;99652.63;;;20.26;70.21
72359;BME280;60317;48.880;-0.862;2023-07-28T02:06:06;99652.63;;;20.26;70.18
72359;BME280;60317;48.880;-0.862;2023-07-28T02:08:33;99651.63;;;20.27;70.09
72359;BME280;60317;48.880;-0.862;2023-07-28T02:10:59;99652.63;;;20.26;70.18
72359;BME280;60317;48.880;-0.862;2023-07-28T02:13:26;99635.69;;;20.26;70.29
72359;BME280;60317;48.880;-0.862;2023-07-28T02:15:53;99634.69;;;20.27;70.12
72359;BME280;60317;48.880;-0.862;2023-07-28T02:18:20;99629.50;;;20.25;70.39
72359;BME280;60317;48.880;-0.862;2023-07-28T02:20:47;99637.38;;;20.27;70.30
72359;BME280;60317;48.880;-0.862;2023-07-28T02:23:14;99633.84;;;20.26;70.29
72359;BME280;60317;48.880;-0.862;2023-07-28T02:25:41;99627.66;;;20.26;70.06
72359;BME280;60317;48.880;-0.862;2023-07-28T02:28:09;99639.22;;;20.26;70.25
72359;BME280;60317;48.880;-0.862;2023-07-28T02:30:36;99641.91;;;20.26;70.20
72359;BME280;60317;48.880;-0.862;2023-07-28T02:33:03;99641.06;;;20.26;70.03
72359;BME280;60317;48.880;-0.862;2023-07-28T02:35:31;99633.00;;;20.26;70.05
72359;BME280;60317;48.880;-0.862;2023-07-28T02:37:57;99624.97;;;20.26;70.11
72359;BME280;60317;48.880;-0.862;2023-07-28T02:40:24;99624.13;;;20.25;70.12
72359;BME280;60317;48.880;-0.862;2023-07-28T02:42:50;99628.63;;;20.25;70.01
72359;BME280;60317;48.880;-0.862;2023-07-28T02:45:17;99616.91;;;20.26;70.08
72359;BME280;60317;48.880;-0.862;2023-07-28T02:47:44;99630.34;;;20.26;69.94
72359;BME280;60317;48.880;-0.862;2023-07-28T02:50:10;99630.34;;;20.26;69.93
72359;BME280;60317;48.880;-0.862;2023-07-28T02:52:38;99624.97;;;20.26;69.92
72359;BME280;60317;48.880;-0.862;2023-07-28T02:55:05;99623.25;;;20.25;69.77
72359;BME280;60317;48.880;-0.862;2023-07-28T02:57:31;99626.81;;;20.25;69.94
72359;BME280;60317;48.880;-0.862;2023-07-28T02:59:58;99624.13;;;20.25;69.76
72359;BME280;60317;48.880;-0.862;2023-07-28T03:02:24;99627.66;;;20.26;69.75
72359;BME280;60317;48.880;-0.862;2023-07-28T03:04:51;99626.81;;;20.25;69.84
72359;BME280;60317;48.880;-0.862;2023-07-28T03:07:17;99629.50;;;20.25;69.79
72359;BME280;60317;48.880;-0.862;2023-07-28T03:09:45;99637.38;;;20.27;69.78
72359;BME280;60317;48.880;-0.862;2023-07-28T03:12:11;99626.81;;;20.25;69.54
72359;BME280;60317;48.880;-0.862;2023-07-28T03:14:38;99631.16;;;20.26;69.83
72359;BME280;60317;48.880;-0.862;2023-07-28T03:17:05;99630.34;;;20.26;69.78
72359;BME280;60317;48.880;-0.862;2023-07-28T03:19:31;99626.81;;;20.25;69.83
72359;BME280;60317;48.880;-0.862;2023-07-28T03:21:58;99625.94;;;20.25;69.90
72359;BME280;60317;48.880;-0.862;2023-07-28T03:24:25;99634.00;;;20.25;69.84
72359;BME280;60317;48.880;-0.862;2023-07-28T03:26:52;99631.31;;;20.25;69.92
72359;BME280;60317;48.880;-0.862;2023-07-28T03:29:19;99634.00;;;20.25;69.90
72359;BME280;60317;48.880;-0.862;2023-07-28T03:31:45;99635.69;;;20.26;69.79
72359;BME280;60317;48.880;-0.862;2023-07-28T03:34:12;99635.69;;;20.26;69.83
72359;BME280;60317;48.880;-0.862;2023-07-28T03:36:38;99636.53;;;20.26;69.73
72359;BME280;60317;48.880;-0.862;2023-07-28T03:39:05;99643.75;;;20.26;69.84
72359;BME280;60317;48.880;-0.862;2023-07-28T03:41:31;99636.53;;;20.26;69.88
72359;BME280;60317;48.880;-0.862;2023-07-28T03:43:59;99627.66;;;20.26;69.73
72359;BME280;60317;48.880;-0.862;2023-07-28T03:46:26;99628.63;;;20.25;69.83
72359;BME280;60317;48.880;-0.862;2023-07-28T03:48:56;99635.69;;;20.26;69.67
72359;BME280;60317;48.880;-0.862;2023-07-28T03:51:22;99629.50;;;20.25;69.52
72359;BME280;60317;48.880;-0.862;2023-07-28T03:53:49;99622.28;;;20.26;69.65
72359;BME280;60317;48.880;-0.862;2023-07-28T03:56:15;99632.19;;;20.25;69.66
72359;BME280;60317;48.880;-0.862;2023-07-28T03:58:42;99624.25;;;20.24;69.58
72359;BME280;60317;48.880;-0.862;2023-07-28T04:01:10;99623.25;;;20.25;69.69
72359;BME280;60317;48.880;-0.862;2023-07-28T04:03:36;99620.56;;;20.25;69.59
72359;BME280;60317;48.880;-0.862;2023-07-28T04:06:09;99623.25;;;20.25;69.69
72359;BME280;60317;48.880;-0.862;2023-07-28T04:08:36;99618.91;;;20.24;69.75
72359;BME280;60317;48.880;-0.862;2023-07-28T04:11:02;99617.88;;;20.25;69.72
72359;BME280;60317;48.880;-0.862;2023-07-28T04:13:29;99616.22;;;20.24;69.68
72359;BME280;60317;48.880;-0.862;2023-07-28T04:15:55;99616.22;;;20.24;69.61
72359;BME280;60317;48.880;-0.862;2023-07-28T04:18:23;99623.25;;;20.25;69.67
72359;BME280;60317;48.880;-0.862;2023-07-28T04:20:50;99625.94;;;20.25;69.75
72359;BME280;60317;48.880;-0.862;2023-07-28T04:23:16;99622.41;;;20.24;69.65
72359;BME280;60317;48.880;-0.862;2023-07-28T04:25:43;99630.47;;;20.24;69.64
72359;BME280;60317;48.880;-0.862;2023-07-28T04:28:09;99622.41;;;20.24;69.66
72359;BME280;60317;48.880;-0.862;2023-07-28T04:30:36;99634.00;;;20.25;69.86
72359;BME280;60317;48.880;-0.862;2023-07-28T04:33:02;99634.00;;;20.25;69.77
72359;BME280;60317;48.880;-0.862;2023-07-28T04:35:31;99635.84;;;20.24;69.91
72359;BME280;60317;48.880;-0.862;2023-07-28T04:37:57;99637.69;;;20.24;69.79
72359;BME280;60317;48.880;-0.862;2023-07-28T04:40:24;99627.78;;;20.24;69.79
72359;BME280;60317;48.880;-0.862;2023-07-28T04:42:50;99626.94;;;20.24;69.68
72359;BME280;60317;48.880;-0.862;2023-07-28T04:45:17;99620.56;;;20.25;69.77
72359;BME280;60317;48.880;-0.862;2023-07-28T04:47:43;99621.56;;;20.24;69.86
72359;BME280;60317;48.880;-0.862;2023-07-28T04:50:10;99631.31;;;20.25;69.71
72359;BME280;60317;48.880;-0.862;2023-07-28T04:52:38;99629.63;;;20.24;69.91
72359;BME280;60317;48.880;-0.862;2023-07-28T04:55:05;99626.94;;;20.24;69.85
72359;BME280;60317;48.880;-0.862;2023-07-28T04:57:31;99631.31;;;20.25;69.74
72359;BME280;60317;48.880;-0.862;2023-07-28T04:59:58;99633.16;;;20.24;69.79
72359;BME280;60317;48.880;-0.862;2023-07-28T05:02:24;99635.00;;;20.24;69.67
72359;BME280;60317;48.880;-0.862;2023-07-28T05:04:51;99638.50;;;20.24;69.71
72359;BME280;60317;48.880;-0.862;2023-07-28T05:07:17;99632.31;;;20.24;69.67
72359;BME280;60317;48.880;-0.862;2023-07-28T05:09:45;99635.00;;;20.24;69.64
72359;BME280;60317;48.880;-0.862;2023-07-28T05:12:11;99637.69;;;20.24;69.65
72359;BME280;60317;48.880;-0.862;2023-07-28T05:14:38;99636.66;;;20.25;69.60
72359;BME280;60317;48.880;-0.862;2023-07-28T05:17:05;99650.09;;;20.25;69.78
72359;BME280;60317;48.880;-0.862;2023-07-28T05:19:31;99642.19;;;20.23;69.71
72359;BME280;60317;48.880;-0.862;2023-07-28T05:21:58;99643.03;;;20.24;69.88
72359;BME280;60317;48.880;-0.862;2023-07-28T05:24:25;99643.03;;;20.24;69.64
72359;BME280;60317;48.880;-0.862;2023-07-28T05:26:52;99647.56;;;20.23;69.84
72359;BME280;60317;48.880;-0.862;2023-07-28T05:29:19;99640.34;;;20.24;69.92
72359;BME280;60317;48.880;-0.862;2023-07-28T05:31:46;99637.69;;;20.24;69.70
72359;BME280;60317;48.880;-0.862;2023-07-28T05:34:12;99631.31;;;20.25;69.83
72359;BME280;60317;48.880;-0.862;2023-07-28T05:36:39;99636.66;;;20.25;69.53
72359;BME280;60317;48.880;-0.862;2023-07-28T05:39:06;99635.00;;;20.24;69.58
72359;BME280;60317;48.880;-0.862;2023-07-28T05:41:32;99637.69;;;20.24;69.80
72359;BME280;60317;48.880;-0.862;2023-07-28T05:44:01;99640.34;;;20.24;69.98
72359;BME280;60317;48.880;-0.862;2023-07-28T05:46:27;99643.03;;;20.24;69.92
72359;BME280;60317;48.880;-0.862;2023-07-28T05:48:54;99637.69;;;20.24;70.00
72359;BME280;60317;48.880;-0.862;2023-07-28T05:51:21;99644.72;;;20.25;70.05
72359;BME280;60317;48.880;-0.862;2023-07-28T05:53:47;99641.19;;;20.24;69.98
72359;BME280;60317;48.880;-0.862;2023-07-28T05:56:14;99644.72;;;20.25;69.80
72359;BME280;60317;48.880;-0.862;2023-07-28T05:58:40;99632.31;;;20.24;69.96
72359;BME280;60317;48.880;-0.862;2023-07-28T06:01:08;99640.34;;;20.24;69.91
72359;BME280;60317;48.880;-0.862;2023-07-28T06:03:35;99644.72;;;20.25;69.95
72359;BME280;60317;48.880;-0.862;2023-07-28T06:06:01;99646.56;;;20.24;69.95
72359;BME280;60317;48.880;-0.862;2023-07-28T06:08:28;99648.41;;;20.24;69.91
72359;BME280;60317;48.880;-0.862;2023-07-28T06:10:54;99649.25;;;20.24;70.05
72359;BME280;60317;48.880;-0.862;2023-07-28T06:13:21;99652.78;;;20.25;70.26
72359;BME280;60317;48.880;-0.862;2023-07-28T06:15:47;99645.72;;;20.24;70.41
72359;BME280;60317;48.880;-0.862;2023-07-28T06:18:15;99648.41;;;20.24;70.24
72359;BME280;60317;48.880;-0.862;2023-07-28T06:20:42;99654.47;;;20.26;70.41
72359;BME280;60317;48.880;-0.862;2023-07-28T06:23:09;99651.09;;;20.24;70.58
72359;BME280;60317;48.880;-0.862;2023-07-28T06:25:35;99649.25;;;20.24;70.29
72359;BME280;60317;48.880;-0.862;2023-07-28T06:28:02;99645.59;;;20.25;70.66
72359;BME280;60317;48.880;-0.862;2023-07-28T06:30:29;99644.72;;;20.25;70.54
72359;BME280;60317;48.880;-0.862;2023-07-28T06:32:55;99644.72;;;20.25;70.43
72359;BME280;60317;48.880;-0.862;2023-07-28T06:35:23;99643.75;;;20.26;70.47
72359;BME280;60317;48.880;-0.862;2023-07-28T06:37:50;99645.44;;;20.27;70.38
72359;BME280;60317;48.880;-0.862;2023-07-28T06:40:16;99649.78;;;20.28;70.38
72359;BME280;60317;48.880;-0.862;2023-07-28T06:42:43;99653.47;;;20.27;70.66
72359;BME280;60317;48.880;-0.862;2023-07-28T06:45:09;99659.69;;;20.27;70.62
72359;BME280;60317;48.880;-0.862;2023-07-28T06:47:36;99659.69;;;20.27;70.55
72359;BME280;60317;48.880;-0.862;2023-07-28T06:50:03;99661.53;;;20.27;70.69
72359;BME280;60317;48.880;-0.862;2023-07-28T06:52:31;99661.34;;;20.29;70.74
72359;BME280;60317;48.880;-0.862;2023-07-28T06:54:57;99672.97;;;20.29;70.47
72359;BME280;60317;48.880;-0.862;2023-07-28T06:57:24;99665.88;;;20.28;70.72
72359;BME280;60317;48.880;-0.862;2023-07-28T06:59:50;99659.69;;;20.27;70.58
72359;BME280;60317;48.880;-0.862;2023-07-28T07:02:17;99657.84;;;20.28;70.74
72359;BME280;60317;48.880;-0.862;2023-07-28T07:04:43;99672.09;;;20.29;70.65
72359;BME280;60317;48.880;-0.862;2023-07-28T07:07:10;99673.94;;;20.28;70.81
72359;BME280;60317;48.880;-0.862;2023-07-28T07:09:38;99676.63;;;20.28;70.47
72359;BME280;60317;48.880;-0.862;2023-07-28T07:12:05;99675.66;;;20.29;70.88
72359;BME280;60317;48.880;-0.862;2023-07-28T07:14:31;99679.16;;;20.30;70.87
72359;BME280;60317;48.880;-0.862;2023-07-28T07:16:58;99679.16;;;20.30;70.80
72359;BME280;60317;48.880;-0.862;2023-07-28T07:19:24;99678.34;;;20.29;70.96
72359;BME280;60317;48.880;-0.862;2023-07-28T07:21:51;99686.38;;;20.29;70.85
72359;BME280;60317;48.880;-0.862;2023-07-28T07:24:17;99688.19;;;20.29;70.98
72359;BME280;60317;48.880;-0.862;2023-07-28T07:26:45;99685.50;;;20.29;70.96
72359;BME280;60317;48.880;-0.862;2023-07-28T07:29:12;99697.97;;;20.30;71.18
72359;BME280;60317;48.880;-0.862;2023-07-28T07:31:39;99699.81;;;20.29;71.09
72359;BME280;60317;48.880;-0.862;2023-07-28T07:34:05;99697.97;;;20.30;71.32
72359;BME280;60317;48.880;-0.862;2023-07-28T07:36:32;99706.97;;;20.29;71.31
72359;BME280;60317;48.880;-0.862;2023-07-28T07:38:58;99705.31;;;20.27;71.14
72359;BME280;60317;48.880;-0.862;2023-07-28T07:41:25;99705.31;;;20.27;71.25
72359;BME280;60317;48.880;-0.862;2023-07-28T07:43:54;99714.19;;;20.28;71.22
72359;BME280;60317;48.880;-0.862;2023-07-28T07:46:20;99712.50;;;20.27;71.25
72359;BME280;60317;48.880;-0.862;2023-07-28T07:48:47;99703.63;;;20.26;71.23
72359;BME280;60317;48.880;-0.862;2023-07-28T07:51:13;99711.66;;;20.26;71.31
72359;BME280;60317;48.880;-0.862;2023-07-28T07:53:40;99706.44;;;20.25;71.47
72359;BME280;60317;48.880;-0.862;2023-07-28T07:56:07;99701.78;;;20.27;71.38
72359;BME280;60317;48.880;-0.862;2023-07-28T07:58:34;99701.78;;;20.27;71.49
72359;BME280;60317;48.880;-0.862;2023-07-28T08:01:02;99699.09;;;20.27;71.46
72359;BME280;60317;48.880;-0.862;2023-07-28T08:03:28;99706.13;;;20.28;71.51
72359;BME280;60317;48.880;-0.862;2023-07-28T08:05:55;99698.09;;;20.28;71.41
72359;BME280;60317;48.880;-0.862;2023-07-28T08:08:22;99699.94;;;20.27;71.49
72359;BME280;60317;48.880;-0.862;2023-07-28T08:10:48;99699.09;;;20.27;71.53
72359;BME280;60317;48.880;-0.862;2023-07-28T08:13:15;99695.41;;;20.28;71.73
72359;BME280;60317;48.880;-0.862;2023-07-28T08:15:42;99705.31;;;20.27;71.66
72359;BME280;60317;48.880;-0.862;2023-07-28T08:18:12;99706.97;;;20.29;71.96
72359;BME280;60317;48.880;-0.862;2023-07-28T08:20:39;99707.97;;;20.27;71.85
72359;BME280;60317;48.880;-0.862;2023-07-28T08:23:06;99715.03;;;20.29;71.61
72359;BME280;60317;48.880;-0.862;2023-07-28T08:25:32;99712.34;;;20.29;71.83
72359;BME280;60317;48.880;-0.862;2023-07-28T08:27:59;99710.53;;;20.29;71.89
72359;BME280;60317;48.880;-0.862;2023-07-28T08:30:25;99718.72;;;20.27;71.85
72359;BME280;60317;48.880;-0.862;2023-07-28T08:32:52;99718.59;;;20.29;71.77
72359;BME280;60317;48.880;-0.862;2023-07-28T08:35:20;99721.41;;;20.27;71.87
72359;BME280;60317;48.880;-0.862;2023-07-28T08:37:46;99725.94;;;20.27;71.78
72359;BME280;60317;48.880;-0.862;2023-07-28T08:40:13;99717.59;;;20.30;71.38
72359;BME280;60317;48.880;-0.862;2023-07-28T08:42:40;99721.09;;;20.31;71.69
72359;BME280;60317;48.880;-0.862;2023-07-28T08:45:07;99719.41;;;20.30;71.89
72359;BME280;60317;48.880;-0.862;2023-07-28T08:47:35;99719.25;;;20.31;72.05
72359;BME280;60317;48.880;-0.862;2023-07-28T08:50:02;99720.25;;;20.30;71.88
72359;BME280;60317;48.880;-0.862;2023-07-28T08:52:29;99716.03;;;20.27;71.77
72359;BME280;60317;48.880;-0.862;2023-07-28T08:54:56;99719.41;;;20.30;71.60
72359;BME280;60317;48.880;-0.862;2023-07-28T08:57:23;99719.25;;;20.31;71.79
72359;BME280;60317;48.880;-0.862;2023-07-28T08:59:49;99721.09;;;20.31;71.61
72359;BME280;60317;48.880;-0.862;2023-07-28T09:02:17;99721.94;;;20.31;71.79
72359;BME280;60317;48.880;-0.862;2023-07-28T09:04:44;99716.56;;;20.31;71.93
72359;BME280;60317;48.880;-0.862;2023-07-28T09:07:12;99711.22;;;20.31;71.70
72359;BME280;60317;48.880;-0.862;2023-07-28T09:09:40;99710.22;;;20.32;71.67
72359;BME280;60317;48.880;-0.862;2023-07-28T09:12:08;99711.06;;;20.33;71.83
72359;BME280;60317;48.880;-0.862;2023-07-28T09:14:35;99718.97;;;20.34;71.86
72359;BME280;60317;48.880;-0.862;2023-07-28T09:17:06;99720.81;;;20.34;71.87
72359;BME280;60317;48.880;-0.862;2023-07-28T09:19:33;99720.81;;;20.34;71.86
72359;BME280;60317;48.880;-0.862;2023-07-28T09:22:01;99726.00;;;20.35;71.92
72359;BME280;60317;48.880;-0.862;2023-07-28T09:24:31;99717.97;;;20.35;71.66
72359;BME280;60317;48.880;-0.862;2023-07-28T09:27:00;99717.97;;;20.35;71.61
72359;BME280;60317;48.880;-0.862;2023-07-28T09:29:27;99717.97;;;20.35;71.69
72359;BME280;60317;48.880;-0.862;2023-07-28T09:31:54;99722.34;;;20.36;71.48
72359;BME280;60317;48.880;-0.862;2023-07-28T09:34:28;99732.09;;;20.37;71.54
72359;BME280;60317;48.880;-0.862;2023-07-28T09:36:57;99732.09;;;20.37;71.67
72359;BME280;60317;48.880;-0.862;2023-07-28T09:39:25;99733.94;;;20.37;71.82
72359;BME280;60317;48.880;-0.862;2023-07-28T09:41:52;99734.75;;;20.37;71.67
72359;BME280;60317;48.880;-0.862;2023-07-28T09:44:20;99737.44;;;20.37;71.58
72359;BME280;60317;48.880;-0.862;2023-07-28T09:46:50;99732.94;;;20.38;71.71
72359;BME280;60317;48.880;-0.862;2023-07-28T09:49:20;99732.94;;;20.38;71.74
72359;BME280;60317;48.880;-0.862;2023-07-28T09:51:48;99732.94;;;20.38;71.74
72359;BME280;60317;48.880;-0.862;2023-07-28T09:54:20;99734.59;;;20.39;71.67
72359;BME280;60317;48.880;-0.862;2023-07-28T09:56:49;99729.22;;;20.39;71.54
72359;BME280;60317;48.880;-0.862;2023-07-28T09:59:17;99735.59;;;20.38;71.83
72359;BME280;60317;48.880;-0.862;2023-07-28T10:01:46;99733.63;;;20.40;71.64
72359;BME280;60317;48.880;-0.862;2023-07-28T10:04:13;99734.47;;;20.40;71.60
72359;BME280;60317;48.880;-0.862;2023-07-28T10:06:40;99735.47;;;20.39;71.71
72359;BME280;60317;48.880;-0.862;2023-07-28T10:09:07;99730.94;;;20.40;71.51
72359;BME280;60317;48.880;-0.862;2023-07-28T10:11:34;99733.63;;;20.40;71.48
72359;BME280;60317;48.880;-0.862;2023-07-28T10:14:01;99731.78;;;20.40;71.11
72359;BME280;60317;48.880;-0.862;2023-07-28T10:16:30;99734.31;;;20.42;71.18
72359;BME280;60317;48.880;-0.862;2023-07-28T10:18:58;99730.78;;;20.41;71.11
72359;BME280;60317;48.880;-0.862;2023-07-28T10:21:27;99737.84;;;20.42;71.01
72359;BME280;60317;48.880;-0.862;2023-07-28T10:23:55;99725.41;;;20.41;70.91
72359;BME280;60317;48.880;-0.862;2023-07-28T10:26:31;99733.34;;;20.43;70.93
72359;BME280;60317;48.880;-0.862;2023-07-28T10:29:08;99731.50;;;20.43;71.10
72359;BME280;60317;48.880;-0.862;2023-07-28T10:31:36;99729.66;;;20.44;71.40
72359;BME280;60317;48.880;-0.862;2023-07-28T10:34:04;99736.84;;;20.43;71.08
72359;BME280;60317;48.880;-0.862;2023-07-28T10:36:34;99735.84;;;20.44;70.74
72359;BME280;60317;48.880;-0.862;2023-07-28T10:39:11;99735.84;;;20.44;70.95
72359;BME280;60317;48.880;-0.862;2023-07-28T10:41:38;99745.59;;;20.45;70.82
72359;BME280;60317;48.880;-0.862;2023-07-28T10:44:06;99745.59;;;20.45;70.68
72359;BME280;60317;48.880;-0.862;2023-07-28T10:46:35;99746.44;;;20.46;70.43
72359;BME280;60317;48.880;-0.862;2023-07-28T10:49:05;99743.75;;;20.46;70.59
72359;BME280;60317;48.880;-0.862;2023-07-28T10:51:31;99747.28;;;20.46;70.64
72359;BME280;60317;48.880;-0.862;2023-07-28T10:53:59;99744.63;;;20.46;70.48
72359;BME280;60317;48.880;-0.862;2023-07-28T10:56:26;99744.63;;;20.46;70.28
72359;BME280;60317;48.880;-0.862;2023-07-28T10:58:56;99743.75;;;20.46;70.45
72359;BME280;60317;48.880;-0.862;2023-07-28T11:01:30;99740.09;;;20.47;70.28
72359;BME280;60317;48.880;-0.862;2023-07-28T11:03:56;99737.41;;;20.47;70.11
72359;BME280;60317;48.880;-0.862;2023-07-28T11:06:24;99740.09;;;20.47;69.93
72359;BME280;60317;48.880;-0.862;2023-07-28T11:08:51;99739.91;;;20.48;69.92
72359;BME280;60317;48.880;-0.862;2023-07-28T11:11:18;99740.09;;;20.47;69.87
72359;BME280;60317;48.880;-0.862;2023-07-28T11:13:45;99743.59;;;20.47;69.83
72359;BME280;60317;48.880;-0.862;2023-07-28T11:16:11;99745.28;;;20.48;69.89
72359;BME280;60317;48.880;-0.862;2023-07-28T11:18:38;99742.59;;;20.48;69.73
72359;BME280;60317;48.880;-0.862;2023-07-28T11:21:04;99748.81;;;20.49;69.66
72359;BME280;60317;48.880;-0.862;2023-07-28T11:23:32;99743.44;;;20.49;69.58
72359;BME280;60317;48.880;-0.862;2023-07-28T11:25:58;99742.59;;;20.48;69.75
72359;BME280;60317;48.880;-0.862;2023-07-28T11:28:25;99750.66;;;20.48;69.56
72359;BME280;60317;48.880;-0.862;2023-07-28T11:30:52;99757.72;;;20.49;69.47
72359;BME280;60317;48.880;-0.862;2023-07-28T11:33:19;99763.81;;;20.52;69.67
72359;BME280;60317;48.880;-0.862;2023-07-28T11:35:46;99761.13;;;20.52;69.54
72359;BME280;60317;48.880;-0.862;2023-07-28T11:38:14;99756.75;;;20.51;69.51
72359;BME280;60317;48.880;-0.862;2023-07-28T11:40:42;99760.97;;;20.53;69.29
72359;BME280;60317;48.880;-0.862;2023-07-28T11:43:09;99758.44;;;20.52;69.07
72359;BME280;60317;48.880;-0.862;2023-07-28T11:45:36;99751.41;;;20.51;69.38
72359;BME280;60317;48.880;-0.862;2023-07-28T11:48:04;99752.22;;;20.51;69.10
72359;BME280;60317;48.880;-0.862;2023-07-28T11:50:35;99756.47;;;20.54;69.18
72359;BME280;60317;48.880;-0.862;2023-07-28T11:53:03;99754.75;;;20.53;69.08
72359;BME280;60317;48.880;-0.862;2023-07-28T11:55:30;99755.59;;;20.53;69.19
72359;BME280;60317;48.880;-0.862;2023-07-28T11:57:58;99764.53;;;20.54;69.08
72359;BME280;60317;48.880;-0.862;2023-07-28T12:00:29;99751.09;;;20.54;69.06
72359;BME280;60317;48.880;-0.862;2023-07-28T12:03:06;99762.50;;;20.56;69.24
72359;BME280;60317;48.880;-0.862;2023-07-28T12:05:33;99747.41;;;20.55;69.17
72359;BME280;60317;48.880;-0.862;2023-07-28T12:08:00;99750.94;;;20.55;69.05
72359;BME280;60317;48.880;-0.862;2023-07-28T12:10:27;99749.94;;;20.56;69.29
72359;BME280;60317;48.880;-0.862;2023-07-28T12:13:03;99747.25;;;20.56;69.30
72359;BME280;60317;48.880;-0.862;2023-07-28T12:15:33;99748.09;;;20.57;69.23
72359;BME280;60317;48.880;-0.862;2023-07-28T12:18:09;99741.03;;;20.56;69.55
72359;BME280;60317;48.880;-0.862;2023-07-28T12:20:40;99744.44;;;20.58;69.44
72359;BME280;60317;48.880;-0.862;2023-07-28T12:23:08;99741.75;;;20.58;69.76
72359;BME280;60317;48.880;-0.862;2023-07-28T12:25:38;99742.59;;;20.58;69.48
72359;BME280;60317;48.880;-0.862;2023-07-28T12:28:06;99747.78;;;20.60;69.65
72359;BME280;60317;48.880;-0.862;2023-07-28T12:30:44;99744.25;;;20.59;69.65
72359;BME280;60317;48.880;-0.862;2023-07-28T12:33:11;99760.38;;;20.59;69.54
72359;BME280;60317;48.880;-0.862;2023-07-28T12:35:41;99753.16;;;20.60;69.69
72359;BME280;60317;48.880;-0.862;2023-07-28T12:38:10;99760.22;;;20.61;69.32
72359;BME280;60317;48.880;-0.862;2023-07-28T12:40:39;99751.31;;;20.60;69.54
72359;BME280;60317;48.880;-0.862;2023-07-28T12:43:10;99746.81;;;20.61;69.61
72359;BME280;60317;48.880;-0.862;2023-07-28T12:45:57;99759.22;;;20.62;69.33
72359;BME280;60317;48.880;-0.862;2023-07-28T12:48:26;99763.59;;;20.63;69.42
72359;BME280;60317;48.880;-0.862;2023-07-28T12:50:53;99753.84;;;20.62;69.38